sensor_id;sensor_type;location;lat;lon;timestamp;P1;durP1;ratioP1;P2;durP2;ratioP2
64597;SDS011;51004;54.692;9.332;2023-07-31T05:52:18;16.30;;;7.82;;
64597;SDS011;51004;54.692;9.332;2023-07-31T05:54:44;16.60;;;7.70;;
64597;SDS011;51004;54.692;9.332;2023-07-31T05:57:11;18.10;;;7.93;;
64597;SDS011;51004;54.692;9.332;2023-07-31T05:59:37;20.65;;;8.02;;
64597;SDS011;51004;54.692;9.332;2023-07-31T06:02:03;23.25;;;8.48;;
64597;SDS011;51004;54.692;9.332;2023-07-31T06:04:29;19.00;;;8.27;;
64597;SDS011;51004;54.692;9.332;2023-07-31T06:06:56;17.73;;;6.78;;
64597;SDS011;51004;54.692;9.332;2023-07-31T06:09:25;12.73;;;6.80;;
64597;SDS011;51004;54.692;9.332;2023-07-31T06:11:51;18.48;;;7.20;;
64597;SDS011;51004;54.692;9.332;2023-07-31T06:14:17;16.73;;;6.60;;
64597;SDS011;51004;54.692;9.332;2023-07-31T06:16:46;17.95;;;7.60;;
64597;SDS011;51004;54.692;9.332;2023-07-31T06:19:12;17.50;;;6.55;;
64597;SDS011;51004;54.692;9.332;2023-07-31T06:21:38;13.73;;;6.00;;
64597;SDS011;51004;54.692;9.332;2023-07-31T06:24:10;16.00;;;5.65;;
64597;SDS011;51004;54.692;9.332;2023-07-31T06:26:51;11.43;;;5.88;;
64597;SDS011;51004;54.692;9.332;2023-07-31T06:29:22;11.98;;;5.53;;
64597;SDS011;51004;54.692;9.332;2023-07-31T06:31:51;7.13;;;4.53;;
64597;SDS011;51004;54.692;9.332;2023-07-31T06:34:28;13.43;;;4.93;;
64597;SDS011;51004;54.692;9.332;2023-07-31T06:36:58;11.68;;;5.00;;
64597;SDS011;51004;54.692;9.332;2023-07-31T06:39:33;8.52;;;3.92;;
64597;SDS011;51004;54.692;9.332;2023-07-31T06:42:15;12.45;;;4.63;;
64597;SDS011;51004;54.692;9.332;2023-07-31T06:44:41;9.98;;;4.15;;
64597;SDS011;51004;54.692;9.332;2023-07-31T06:47:09;11.10;;;4.10;;
64597;SDS011;51004;54.692;9.332;2023-07-31T06:49:43;11.25;;;3.40;;
64597;SDS011;51004;54.692;9.332;2023-07-31T06:52:12;7.93;;;3.20;;
64597;SDS011;51004;54.692;9.332;2023-07-31T06:54:38;12.38;;;3.28;;
64597;SDS011;51004;54.692;9.332;2023-07-31T06:57:04;8.60;;;3.58;;
64597;SDS011;51004;54.692;9.332;2023-07-31T06:59:30;10.75;;;3.40;;
64597;SDS011;51004;54.692;9.332;2023-07-31T07:01:58;11.38;;;3.70;;
64597;SDS011;51004;54.692;9.332;2023-07-31T07:04:27;11.77;;;3.53;;
64597;SDS011;51004;54.692;9.332;2023-07-31T07:06:53;10.38;;;3.35;;
64597;SDS011;51004;54.692;9.332;2023-07-31T07:09:19;7.20;;;2.53;;
64597;SDS011;51004;54.692;9.332;2023-07-31T07:11:45;13.65;;;3.83;;
64597;SDS011;51004;54.692;9.332;2023-07-31T07:14:12;6.10;;;2.30;;
64597;SDS011;51004;54.692;9.332;2023-07-31T07:16:38;7.10;;;2.65;;
64597;SDS011;51004;54.692;9.332;2023-07-31T07:19:07;7.63;;;2.05;;
64597;SDS011;51004;54.692;9.332;2023-07-31T07:21:39;6.22;;;2.00;;
64597;SDS011;51004;54.692;9.332;2023-07-31T07:24:05;7.32;;;2.40;;
64597;SDS011;51004;54.692;9.332;2023-07-31T07:26:37;5.90;;;1.85;;
64597;SDS011;51004;54.692;9.332;2023-07-31T07:29:03;5.22;;;1.67;;
64597;SDS011;51004;54.692;9.332;2023-07-31T07:31:32;4.68;;;1.90;;
64597;SDS011;51004;54.692;9.332;2023-07-31T07:33:58;4.78;;;1.38;;
64597;SDS011;51004;54.692;9.332;2023-07-31T07:36:24;4.15;;;1.70;;
64597;SDS011;51004;54.692;9.332;2023-07-31T07:38:53;7.82;;;1.75;;
64597;SDS011;51004;54.692;9.332;2023-07-31T07:41:19;5.68;;;1.40;;
64597;SDS011;51004;54.692;9.332;2023-07-31T07:43:45;6.40;;;2.15;;
64597;SDS011;51004;54.692;9.332;2023-07-31T10:53:00;6.63;;;2.38;;
64597;SDS011;51004;54.692;9.332;2023-07-31T10:55:27;5.13;;;1.48;;
64597;SDS011;51004;54.692;9.332;2023-07-31T10:57:54;6.28;;;2.08;;
64597;SDS011;51004;54.692;9.332;2023-07-31T11:00:28;5.80;;;2.28;;
64597;SDS011;51004;54.692;9.332;2023-07-31T11:02:58;10.38;;;1.98;;
64597;SDS011;51004;54.692;9.332;2023-07-31T11:05:59;7.85;;;2.10;;
64597;SDS011;51004;54.692;9.332;2023-07-31T11:08:20;4.60;;;1.65;;
64597;SDS011;51004;54.692;9.332;2023-07-31T11:10:48;5.25;;;1.77;;
64597;SDS011;51004;54.692;9.332;2023-07-31T11:13:14;4.50;;;2.00;;
64597;SDS011;51004;54.692;9.332;2023-07-31T11:15:40;6.40;;;1.92;;
64597;SDS011;51004;54.692;9.332;2023-07-31T11:18:06;4.40;;;2.22;;
64597;SDS011;51004;54.692;9.332;2023-07-31T11:20:33;7.85;;;2.00;;
64597;SDS011;51004;54.692;9.332;2023-07-31T11:23:07;8.00;;;2.00;;
64597;SDS011;51004;54.692;9.332;2023-07-31T11:25:34;5.40;;;1.88;;
64597;SDS011;51004;54.692;9.332;2023-07-31T11:28:07;6.22;;;1.70;;
64597;SDS011;51004;54.692;9.332;2023-07-31T11:33:03;2.95;;;1.48;;
64597;SDS011;51004;54.692;9.332;2023-07-31T11:35:30;6.57;;;1.98;;
64597;SDS011;51004;54.692;9.332;2023-07-31T11:37:58;6.60;;;1.63;;
64597;SDS011;51004;54.692;9.332;2023-07-31T11:40:24;5.28;;;1.80;;
64597;SDS011;51004;54.692;9.332;2023-07-31T11:42:57;6.53;;;2.10;;
64597;SDS011;51004;54.692;9.332;2023-07-31T11:45:27;4.85;;;1.55;;
64597;SDS011;51004;54.692;9.332;2023-07-31T11:48:01;5.32;;;1.60;;
64597;SDS011;51004;54.692;9.332;2023-07-31T13:30:53;3.40;;;1.52;;
64597;SDS011;51004;54.692;9.332;2023-07-31T13:33:20;4.03;;;1.17;;
64597;SDS011;51004;54.692;9.332;2023-07-31T13:35:46;2.10;;;1.20;;
64597;SDS011;51004;54.692;9.332;2023-07-31T13:38:13;3.42;;;1.13;;
64597;SDS011;51004;54.692;9.332;2023-07-31T13:40:39;2.83;;;1.00;;
64597;SDS011;51004;54.692;9.332;2023-07-31T13:43:05;2.95;;;1.40;;
64597;SDS011;51004;54.692;9.332;2023-07-31T13:45:31;2.00;;;1.08;;
64597;SDS011;51004;54.692;9.332;2023-07-31T13:47:57;4.72;;;1.48;;
64597;SDS011;51004;54.692;9.332;2023-07-31T13:50:23;4.00;;;1.60;;
64597;SDS011;51004;54.692;9.332;2023-07-31T13:52:50;3.22;;;1.27;;
64597;SDS011;51004;54.692;9.332;2023-07-31T13:55:16;5.18;;;1.50;;
64597;SDS011;51004;54.692;9.332;2023-07-31T13:57:47;2.75;;;1.40;;
64597;SDS011;51004;54.692;9.332;2023-07-31T14:00:14;1.95;;;1.10;;
64597;SDS011;51004;54.692;9.332;2023-07-31T14:02:40;3.38;;;1.35;;
64597;SDS011;51004;54.692;9.332;2023-07-31T14:05:06;2.22;;;1.20;;
64597;SDS011;51004;54.692;9.332;2023-07-31T14:07:34;1.80;;;1.10;;
64597;SDS011;51004;54.692;9.332;2023-07-31T14:10:00;2.03;;;0.90;;
64597;SDS011;51004;54.692;9.332;2023-07-31T14:12:30;3.33;;;1.20;;
64597;SDS011;51004;54.692;9.332;2023-07-31T14:15:02;2.63;;;1.00;;
64597;SDS011;51004;54.692;9.332;2023-07-31T14:17:28;1.80;;;0.88;;
64597;SDS011;51004;54.692;9.332;2023-07-31T14:19:54;2.03;;;0.80;;
64597;SDS011;51004;54.692;9.332;2023-07-31T14:22:30;2.08;;;1.00;;
64597;SDS011;51004;54.692;9.332;2023-07-31T14:24:58;1.55;;;0.80;;
64597;SDS011;51004;54.692;9.332;2023-07-31T14:27:24;1.50;;;0.70;;
64597;SDS011;51004;54.692;9.332;2023-07-31T14:29:50;2.08;;;0.93;;
64597;SDS011;51004;54.692;9.332;2023-07-31T14:32:16;2.60;;;0.80;;
64597;SDS011;51004;54.692;9.332;2023-07-31T14:34:42;1.05;;;0.65;;
64597;SDS011;51004;54.692;9.332;2023-07-31T14:37:08;1.90;;;0.98;;
64597;SDS011;51004;54.692;9.332;2023-07-31T14:39:34;2.17;;;1.00;;
64597;SDS011;51004;54.692;9.332;2023-07-31T14:42:00;2.35;;;1.00;;
64597;SDS011;51004;54.692;9.332;2023-07-31T14:44:27;1.70;;;1.05;;
64597;SDS011;51004;54.692;9.332;2023-07-31T14:46:53;3.33;;;1.27;;
64597;SDS011;51004;54.692;9.332;2023-07-31T14:49:20;3.20;;;1.02;;
64597;SDS011;51004;54.692;9.332;2023-07-31T14:51:46;1.50;;;0.85;;
64597;SDS011;51004;54.692;9.332;2023-07-31T14:54:12;2.70;;;1.05;;
64597;SDS011;51004;54.692;9.332;2023-07-31T14:56:38;1.85;;;0.93;;
64597;SDS011;51004;54.692;9.332;2023-07-31T14:59:04;2.17;;;1.00;;
64597;SDS011;51004;54.692;9.332;2023-07-31T15:01:32;1.90;;;1.10;;
64597;SDS011;51004;54.692;9.332;2023-07-31T15:03:58;2.67;;;0.98;;
64597;SDS011;51004;54.692;9.332;2023-07-31T15:06:24;2.67;;;1.10;;
64597;SDS011;51004;54.692;9.332;2023-07-31T15:08:50;2.33;;;1.00;;
64597;SDS011;51004;54.692;9.332;2023-07-31T15:11:28;2.38;;;1.05;;
64597;SDS011;51004;54.692;9.332;2023-07-31T15:13:54;1.75;;;0.98;;
64597;SDS011;51004;54.692;9.332;2023-07-31T15:16:20;2.30;;;0.95;;
64597;SDS011;51004;54.692;9.332;2023-07-31T15:18:46;1.60;;;0.90;;
64597;SDS011;51004;54.692;9.332;2023-07-31T15:21:15;2.05;;;1.10;;
64597;SDS011;51004;54.692;9.332;2023-07-31T15:23:47;1.95;;;0.90;;
64597;SDS011;51004;54.692;9.332;2023-07-31T15:26:13;2.60;;;1.17;;
64597;SDS011;51004;54.692;9.332;2023-07-31T15:28:39;1.55;;;0.95;;
64597;SDS011;51004;54.692;9.332;2023-07-31T15:31:05;1.75;;;0.90;;
64597;SDS011;51004;54.692;9.332;2023-07-31T15:33:31;1.85;;;0.98;;
64597;SDS011;51004;54.692;9.332;2023-07-31T15:35:57;1.52;;;0.93;;
64597;SDS011;51004;54.692;9.332;2023-07-31T15:38:23;1.77;;;0.93;;
64597;SDS011;51004;54.692;9.332;2023-07-31T15:40:49;4.70;;;4.22;;
64597;SDS011;51004;54.692;9.332;2023-07-31T15:43:16;2.97;;;1.83;;
64597;SDS011;51004;54.692;9.332;2023-07-31T15:45:42;1.40;;;0.80;;
64597;SDS011;51004;54.692;9.332;2023-07-31T15:48:08;1.77;;;0.90;;
64597;SDS011;51004;54.692;9.332;2023-07-31T15:50:34;2.00;;;1.00;;
64597;SDS011;51004;54.692;9.332;2023-07-31T15:53:00;4.55;;;1.30;;
64597;SDS011;51004;54.692;9.332;2023-07-31T15:55:26;11.40;;;10.30;;
64597;SDS011;51004;54.692;9.332;2023-07-31T15:57:52;1.55;;;0.90;;
64597;SDS011;51004;54.692;9.332;2023-07-31T16:00:18;2.10;;;1.00;;
64597;SDS011;51004;54.692;9.332;2023-07-31T16:02:44;1.60;;;1.10;;
64597;SDS011;51004;54.692;9.332;2023-07-31T16:05:10;2.05;;;0.98;;
64597;SDS011;51004;54.692;9.332;2023-07-31T16:07:36;1.70;;;1.20;;
64597;SDS011;51004;54.692;9.332;2023-07-31T16:10:02;2.17;;;1.17;;
64597;SDS011;51004;54.692;9.332;2023-07-31T16:12:28;2.38;;;1.23;;
64597;SDS011;51004;54.692;9.332;2023-07-31T16:14:54;2.38;;;1.35;;
64597;SDS011;51004;54.692;9.332;2023-07-31T16:17:20;2.28;;;1.17;;
64597;SDS011;51004;54.692;9.332;2023-07-31T16:19:46;2.47;;;1.30;;
64597;SDS011;51004;54.692;9.332;2023-07-31T16:22:12;3.53;;;1.33;;
64597;SDS011;51004;54.692;9.332;2023-07-31T16:24:38;1.48;;;1.20;;
64597;SDS011;51004;54.692;9.332;2023-07-31T16:27:05;3.15;;;1.20;;
64597;SDS011;51004;54.692;9.332;2023-07-31T16:29:31;1.75;;;1.05;;
64597;SDS011;51004;54.692;9.332;2023-07-31T16:31:57;1.80;;;1.10;;
64597;SDS011;51004;54.692;9.332;2023-07-31T16:34:23;2.00;;;1.13;;
64597;SDS011;51004;54.692;9.332;2023-07-31T16:36:52;2.00;;;1.20;;
64597;SDS011;51004;54.692;9.332;2023-07-31T16:39:20;3.38;;;1.02;;
64597;SDS011;51004;54.692;9.332;2023-07-31T16:41:46;1.88;;;1.10;;
64597;SDS011;51004;54.692;9.332;2023-07-31T16:44:12;2.10;;;1.20;;
64597;SDS011;51004;54.692;9.332;2023-07-31T16:46:40;2.22;;;1.00;;
64597;SDS011;51004;54.692;9.332;2023-07-31T16:49:06;2.65;;;1.20;;
64597;SDS011;51004;54.692;9.332;2023-07-31T16:51:32;1.55;;;0.77;;
64597;SDS011;51004;54.692;9.332;2023-07-31T16:53:58;1.50;;;1.00;;
64597;SDS011;51004;54.692;9.332;2023-07-31T16:56:24;2.15;;;1.23;;
64597;SDS011;51004;54.692;9.332;2023-07-31T16:58:50;2.40;;;1.30;;
64597;SDS011;51004;54.692;9.332;2023-07-31T17:01:16;2.55;;;1.67;;
64597;SDS011;51004;54.692;9.332;2023-07-31T17:03:42;2.78;;;1.50;;
64597;SDS011;51004;54.692;9.332;2023-07-31T17:06:08;2.45;;;1.45;;
64597;SDS011;51004;54.692;9.332;2023-07-31T17:08:34;3.08;;;1.50;;
64597;SDS011;51004;54.692;9.332;2023-07-31T17:11:00;2.40;;;1.70;;
64597;SDS011;51004;54.692;9.332;2023-07-31T17:13:26;2.08;;;1.60;;
64597;SDS011;51004;54.692;9.332;2023-07-31T17:15:52;1.83;;;1.45;;
64597;SDS011;51004;54.692;9.332;2023-07-31T17:18:18;2.38;;;1.73;;
64597;SDS011;51004;54.692;9.332;2023-07-31T17:20:44;3.45;;;1.70;;
64597;SDS011;51004;54.692;9.332;2023-07-31T17:23:10;2.35;;;1.63;;
64597;SDS011;51004;54.692;9.332;2023-07-31T17:25:37;2.92;;;1.75;;
64597;SDS011;51004;54.692;9.332;2023-07-31T17:28:03;3.30;;;1.75;;
64597;SDS011;51004;54.692;9.332;2023-07-31T17:30:29;4.35;;;1.63;;
64597;SDS011;51004;54.692;9.332;2023-07-31T17:32:55;4.35;;;1.60;;
64597;SDS011;51004;54.692;9.332;2023-07-31T17:35:21;4.32;;;1.90;;
64597;SDS011;51004;54.692;9.332;2023-07-31T17:37:47;4.05;;;1.85;;
64597;SDS011;51004;54.692;9.332;2023-07-31T17:40:13;2.25;;;1.75;;
64597;SDS011;51004;54.692;9.332;2023-07-31T17:42:39;2.28;;;1.45;;
64597;SDS011;51004;54.692;9.332;2023-07-31T17:45:06;1.80;;;1.50;;
64597;SDS011;51004;54.692;9.332;2023-07-31T17:47:32;3.20;;;1.52;;
64597;SDS011;51004;54.692;9.332;2023-07-31T17:49:58;3.15;;;1.75;;
64597;SDS011;51004;54.692;9.332;2023-07-31T17:52:24;2.80;;;1.60;;
64597;SDS011;51004;54.692;9.332;2023-07-31T17:54:50;2.97;;;1.50;;
64597;SDS011;51004;54.692;9.332;2023-07-31T17:57:19;2.05;;;1.50;;
64597;SDS011;51004;54.692;9.332;2023-07-31T17:59:45;3.05;;;1.67;;
64597;SDS011;51004;54.692;9.332;2023-07-31T18:02:15;1.92;;;1.10;;
64597;SDS011;51004;54.692;9.332;2023-07-31T18:04:41;2.97;;;1.10;;
64597;SDS011;51004;54.692;9.332;2023-07-31T18:07:07;1.58;;;1.17;;
64597;SDS011;51004;54.692;9.332;2023-07-31T18:09:33;1.70;;;1.17;;
64597;SDS011;51004;54.692;9.332;2023-07-31T18:11:59;3.72;;;1.58;;
64597;SDS011;51004;54.692;9.332;2023-07-31T18:14:25;2.20;;;1.27;;
64597;SDS011;51004;54.692;9.332;2023-07-31T18:16:53;1.92;;;1.40;;
64597;SDS011;51004;54.692;9.332;2023-07-31T18:19:19;4.30;;;1.50;;
64597;SDS011;51004;54.692;9.332;2023-07-31T18:21:45;3.03;;;1.60;;
64597;SDS011;51004;54.692;9.332;2023-07-31T18:24:11;4.07;;;1.80;;
64597;SDS011;51004;54.692;9.332;2023-07-31T18:26:37;2.58;;;1.70;;
64597;SDS011;51004;54.692;9.332;2023-07-31T18:29:03;2.80;;;1.85;;
64597;SDS011;51004;54.692;9.332;2023-07-31T18:31:29;3.75;;;1.30;;
64597;SDS011;51004;54.692;9.332;2023-07-31T18:33:55;2.55;;;1.60;;
64597;SDS011;51004;54.692;9.332;2023-07-31T18:36:21;2.88;;;1.58;;
64597;SDS011;51004;54.692;9.332;2023-07-31T18:38:47;2.40;;;1.67;;
64597;SDS011;51004;54.692;9.332;2023-07-31T18:41:13;4.35;;;1.52;;
64597;SDS011;51004;54.692;9.332;2023-07-31T18:43:39;2.20;;;1.52;;
64597;SDS011;51004;54.692;9.332;2023-07-31T18:46:05;4.05;;;1.77;;
64597;SDS011;51004;54.692;9.332;2023-07-31T18:48:31;3.90;;;1.70;;
64597;SDS011;51004;54.692;9.332;2023-07-31T18:50:57;3.65;;;1.60;;
64597;SDS011;51004;54.692;9.332;2023-07-31T18:53:23;2.33;;;1.50;;
64597;SDS011;51004;54.692;9.332;2023-07-31T18:55:50;2.53;;;1.70;;
64597;SDS011;51004;54.692;9.332;2023-07-31T18:58:17;4.13;;;1.85;;
64597;SDS011;51004;54.692;9.332;2023-07-31T19:00:43;1.83;;;1.38;;
64597;SDS011;51004;54.692;9.332;2023-07-31T19:03:09;2.63;;;1.73;;
64597;SDS011;51004;54.692;9.332;2023-07-31T19:05:35;3.40;;;1.50;;
64597;SDS011;51004;54.692;9.332;2023-07-31T19:08:01;2.10;;;1.55;;
64597;SDS011;51004;54.692;9.332;2023-07-31T19:10:30;2.40;;;1.35;;
64597;SDS011;51004;54.692;9.332;2023-07-31T19:13:12;2.05;;;1.50;;
64597;SDS011;51004;54.692;9.332;2023-07-31T19:15:38;3.23;;;2.00;;
64597;SDS011;51004;54.692;9.332;2023-07-31T19:18:05;2.20;;;1.50;;
64597;SDS011;51004;54.692;9.332;2023-07-31T19:20:31;2.08;;;1.55;;
64597;SDS011;51004;54.692;9.332;2023-07-31T19:22:57;2.33;;;1.50;;
64597;SDS011;51004;54.692;9.332;2023-07-31T19:25:23;2.47;;;1.55;;
64597;SDS011;51004;54.692;9.332;2023-07-31T19:27:49;2.70;;;1.42;;
64597;SDS011;51004;54.692;9.332;2023-07-31T19:30:15;4.85;;;1.70;;
64597;SDS011;51004;54.692;9.332;2023-07-31T19:32:42;2.72;;;1.48;;
64597;SDS011;51004;54.692;9.332;2023-07-31T19:35:08;2.92;;;1.50;;
64597;SDS011;51004;54.692;9.332;2023-07-31T19:37:34;2.28;;;1.77;;
64597;SDS011;51004;54.692;9.332;2023-07-31T19:40:00;2.42;;;1.85;;
64597;SDS011;51004;54.692;9.332;2023-07-31T19:42:26;4.55;;;2.00;;
64597;SDS011;51004;54.692;9.332;2023-07-31T19:44:52;2.70;;;2.35;;
64597;SDS011;51004;54.692;9.332;2023-07-31T19:47:18;2.97;;;2.15;;
64597;SDS011;51004;54.692;9.332;2023-07-31T19:49:44;3.53;;;2.15;;
64597;SDS011;51004;54.692;9.332;2023-07-31T19:52:10;2.25;;;1.98;;
64597;SDS011;51004;54.692;9.332;2023-07-31T19:54:36;2.90;;;2.55;;
64597;SDS011;51004;54.692;9.332;2023-07-31T19:57:02;3.92;;;2.38;;
64597;SDS011;51004;54.692;9.332;2023-07-31T19:59:28;2.55;;;2.33;;
64597;SDS011;51004;54.692;9.332;2023-07-31T20:01:55;3.97;;;3.00;;
64597;SDS011;51004;54.692;9.332;2023-07-31T20:04:21;3.30;;;2.97;;
64597;SDS011;51004;54.692;9.332;2023-07-31T20:06:47;4.95;;;3.13;;
64597;SDS011;51004;54.692;9.332;2023-07-31T20:09:22;3.53;;;2.88;;
64597;SDS011;51004;54.692;9.332;2023-07-31T20:11:48;4.45;;;2.75;;
64597;SDS011;51004;54.692;9.332;2023-07-31T20:14:26;4.28;;;3.17;;
64597;SDS011;51004;54.692;9.332;2023-07-31T20:16:52;7.20;;;3.22;;
64597;SDS011;51004;54.692;9.332;2023-07-31T20:19:32;3.53;;;3.10;;
64597;SDS011;51004;54.692;9.332;2023-07-31T20:21:58;5.80;;;3.40;;
64597;SDS011;51004;54.692;9.332;2023-07-31T20:24:24;3.83;;;3.25;;
64597;SDS011;51004;54.692;9.332;2023-07-31T20:26:50;3.63;;;3.33;;
64597;SDS011;51004;54.692;9.332;2023-07-31T20:29:16;5.25;;;4.00;;
64597;SDS011;51004;54.692;9.332;2023-07-31T20:31:42;4.28;;;3.88;;
64597;SDS011;51004;54.692;9.332;2023-07-31T20:34:12;3.97;;;3.58;;
64597;SDS011;51004;54.692;9.332;2023-07-31T20:36:38;6.00;;;3.95;;
64597;SDS011;51004;54.692;9.332;2023-07-31T20:39:04;4.65;;;3.28;;
64597;SDS011;51004;54.692;9.332;2023-07-31T20:41:31;5.75;;;4.13;;
64597;SDS011;51004;54.692;9.332;2023-07-31T20:43:57;4.40;;;3.75;;
64597;SDS011;51004;54.692;9.332;2023-07-31T20:46:24;4.70;;;4.28;;
64597;SDS011;51004;54.692;9.332;2023-07-31T20:48:50;5.65;;;4.50;;
64597;SDS011;51004;54.692;9.332;2023-07-31T20:51:16;6.70;;;4.35;;
64597;SDS011;51004;54.692;9.332;2023-07-31T20:53:42;6.78;;;4.78;;
64597;SDS011;51004;54.692;9.332;2023-07-31T20:56:08;5.22;;;4.72;;
64597;SDS011;51004;54.692;9.332;2023-07-31T20:58:34;7.05;;;5.75;;
64597;SDS011;51004;54.692;9.332;2023-07-31T21:01:00;5.90;;;5.15;;
64597;SDS011;51004;54.692;9.332;2023-07-31T21:03:29;6.28;;;5.15;;
64597;SDS011;51004;54.692;9.332;2023-07-31T21:05:57;5.57;;;4.82;;
64597;SDS011;51004;54.692;9.332;2023-07-31T21:08:28;6.28;;;5.00;;
64597;SDS011;51004;54.692;9.332;2023-07-31T21:10:54;6.32;;;5.57;;
64597;SDS011;51004;54.692;9.332;2023-07-31T21:13:20;5.70;;;5.20;;
64597;SDS011;51004;54.692;9.332;2023-07-31T21:15:57;6.38;;;5.63;;
64597;SDS011;51004;54.692;9.332;2023-07-31T21:18:24;8.98;;;5.97;;
64597;SDS011;51004;54.692;9.332;2023-07-31T21:20:50;8.20;;;6.20;;
64597;SDS011;51004;54.692;9.332;2023-07-31T21:23:18;6.90;;;6.20;;
64597;SDS011;51004;54.692;9.332;2023-07-31T21:31:30;10.23;;;8.25;;
